Time;durP1;ratioP1;P1;durP2;ratioP2;P2;SDS_P1;SDS_P2;PMS_P1;PMS_P2;Temp;Humidity;BMP_temperature;BMP_pressure;BME280_temperature;BME280_humidity;BME280_pressure;Samples;Min_cycle;Max_cycle;Signal;HPM_P1;HPM_P2
2023/06/19 00:01:51;;;;;;;16.08;8.27;;;;;;;20.50;86.11;96301.31;5024513;28;20140;-66
2023/06/19 00:04:17;;;;;;;11.40;7.97;;;;;;;20.36;87.18;96304.53;5020748;28;20056;-66
2023/06/19 00:06:42;;;;;;;13.32;8.75;;;;;;;20.37;87.20;96312.44;5030324;28;20669;-65
2023/06/19 00:09:07;;;;;;;11.40;8.07;;;;;;;20.26;88.80;96311.97;5023815;28;20041;-66
2023/06/19 00:11:33;;;;;;;11.57;8.18;;;;;;;20.27;88.81;96313.50;5024020;28;20156;-67
2023/06/19 00:13:58;;;;;;;12.40;8.50;;;;;;;20.34;88.51;96306.97;5021429;28;20482;-67
2023/06/19 00:16:25;;;;;;;10.07;7.57;;;;;;;20.48;87.11;96308.56;5018410;28;20042;-67
2023/06/19 00:18:51;;;;;;;11.07;8.43;;;;;;;20.57;86.05;96312.25;5023301;28;20068;-67
2023/06/19 00:21:17;;;;;;;9.75;7.82;;;;;;;20.72;85.22;96311.84;5019962;28;20042;-66
2023/06/19 00:23:42;;;;;;;11.88;8.25;;;;;;;20.77;84.99;96316.88;5025225;28;20061;-67
2023/06/19 00:26:08;;;;;;;11.57;8.07;;;;;;;20.81;84.93;96315.56;5024417;28;20064;-64
2023/06/19 00:28:33;;;;;;;9.65;7.80;;;;;;;20.83;84.50;96326.22;5028499;28;20057;-66
2023/06/19 00:30:58;;;;;;;12.07;7.57;;;;;;;20.86;83.78;96319.00;5022000;28;20045;-67
2023/06/19 00:33:24;;;;;;;9.77;7.95;;;;;;;20.84;83.23;96330.56;5018788;28;20042;-66
2023/06/19 00:35:52;;;;;;;10.05;7.68;;;;;;;20.79;82.98;96325.56;5025633;28;20029;-68
2023/06/19 00:38:17;;;;;;;10.18;7.95;;;;;;;20.72;83.16;96322.97;5019231;28;20099;-66
2023/06/19 00:40:43;;;;;;;9.07;7.72;;;;;;;20.56;83.55;96321.03;5023303;28;20042;-67
2023/06/19 00:43:08;;;;;;;10.80;8.38;;;;;;;20.08;88.00;96320.00;5015861;28;20033;-67
2023/06/19 00:45:34;;;;;;;14.85;8.32;;;;;;;19.70;91.42;96332.50;5020429;28;20042;-67
2023/06/19 00:48:00;;;;;;;15.07;9.75;;;;;;;19.31;95.25;96328.69;5022067;28;20041;-68
2023/06/19 00:50:28;;;;;;;11.52;8.68;;;;;;;19.29;95.45;96331.09;5017419;28;20398;-68
2023/06/19 00:52:54;;;;;;;14.00;9.40;;;;;;;19.13;97.76;96331.09;5023346;28;20041;-67
2023/06/19 00:55:20;;;;;;;11.63;8.35;;;;;;;19.29;97.96;96331.88;5029524;28;20076;-63
2023/06/19 00:57:46;;;;;;;12.75;8.50;;;;;;;19.47;96.84;96325.13;5011249;28;20038;-66
2023/06/19 01:00:12;;;;;;;13.90;8.68;;;;;;;19.53;94.57;96333.72;5005975;28;20045;-66
2023/06/19 01:02:38;;;;;;;10.27;8.18;;;;;;;19.55;94.60;96340.38;5022080;28;20112;-67
2023/06/19 01:05:05;;;;;;;10.52;8.52;;;;;;;19.53;94.04;96340.03;5003017;28;20049;-64
2023/06/19 01:07:49;;;;;;;14.88;8.45;;;;;;;19.54;94.50;96338.84;5005190;28;20072;-66
2023/06/19 01:10:21;;;;;;;11.82;7.90;;;;;;;19.69;93.66;96344.81;5017505;28;20041;-67
2023/06/19 01:12:56;;;;;;;11.93;8.43;;;;;;;19.75;92.98;96350.63;5020696;28;20041;-66
2023/06/19 01:15:22;;;;;;;11.75;8.52;;;;;;;19.66;92.87;96351.22;5016821;28;20152;-65
2023/06/19 01:17:49;;;;;;;12.73;9.50;;;;;;;19.61;92.97;96354.53;5021905;28;20037;-66
2023/06/19 01:20:14;;;;;;;11.25;8.18;;;;;;;19.60;93.22;96352.97;5017199;28;20033;-66
2023/06/19 01:22:43;;;;;;;11.93;9.00;;;;;;;19.59;93.40;96359.72;5035190;28;20595;-67
2023/06/19 01:25:13;;;;;;;10.47;8.87;;;;;;;19.59;94.13;96363.31;5030827;28;20076;-66
2023/06/19 01:27:39;;;;;;;10.38;8.30;;;;;;;19.61;93.69;96362.88;5021651;28;20041;-66
2023/06/19 01:30:06;;;;;;;12.02;9.35;;;;;;;19.74;92.43;96363.00;5017349;28;20073;-66
2023/06/19 01:32:33;;;;;;;12.23;8.48;;;;;;;19.76;92.17;96368.88;5021105;28;20055;-67
2023/06/19 01:35:01;;;;;;;12.95;8.90;;;;;;;19.71;92.30;96370.16;5020965;28;20048;-67
2023/06/19 01:37:28;;;;;;;11.70;8.60;;;;;;;19.75;92.63;96368.09;5017404;28;20068;-67
2023/06/19 01:39:58;;;;;;;10.93;8.73;;;;;;;19.81;92.88;96365.59;5021541;28;20171;-67
2023/06/19 01:42:25;;;;;;;12.13;8.40;;;;;;;19.78;93.42;96375.56;5015473;28;20033;-67
2023/06/19 01:44:51;;;;;;;13.25;9.35;;;;;;;19.75;93.41;96376.41;5020211;28;20033;-67
2023/06/19 01:47:19;;;;;;;13.30;9.13;;;;;;;19.64;93.16;96381.44;5015367;28;20140;-67
2023/06/19 01:49:46;;;;;;;12.27;9.75;;;;;;;19.54;93.14;96379.72;5018902;28;20402;-66
2023/06/19 01:52:12;;;;;;;13.98;9.07;;;;;;;19.39;94.15;96387.59;5015951;28;20045;-66
2023/06/19 01:54:37;;;;;;;11.90;9.77;;;;;;;19.33;94.58;96390.09;5021298;28;20049;-67
2023/06/19 01:57:03;;;;;;;11.55;9.43;;;;;;;19.35;94.52;96389.69;5019955;28;20075;-60
2023/06/19 01:59:28;;;;;;;10.40;8.52;;;;;;;19.37;94.60;96398.34;5023628;28;20099;-71
2023/06/19 02:01:54;;;;;;;15.10;9.10;;;;;;;19.44;94.05;96398.97;5024600;28;20072;-68
2023/06/19 02:04:19;;;;;;;12.43;9.70;;;;;;;19.39;93.87;96409.81;5018260;28;20087;-68
2023/06/19 02:06:45;;;;;;;11.80;8.95;;;;;;;19.46;94.14;96396.56;5024999;28;20506;-67
2023/06/19 02:09:11;;;;;;;11.80;9.75;;;;;;;19.32;94.31;96393.31;5019550;28;20040;-68
2023/06/19 02:11:36;;;;;;;13.18;9.65;;;;;;;19.17;95.13;96409.53;5024618;28;20076;-68
2023/06/19 02:14:01;;;;;;;11.18;9.52;;;;;;;19.18;95.62;96411.88;5022286;28;20395;-63
2023/06/19 02:16:27;;;;;;;13.77;8.85;;;;;;;19.27;95.17;96412.06;5021672;28;20239;-68
2023/06/19 02:18:52;;;;;;;11.65;9.15;;;;;;;19.27;94.79;96408.50;5025060;28;20391;-67
2023/06/19 02:21:17;;;;;;;16.02;9.32;;;;;;;19.03;95.37;96424.47;5021915;28;20097;-64
2023/06/19 02:23:43;;;;;;;11.23;9.45;;;;;;;18.76;97.36;96421.84;5024917;28;20083;-66
2023/06/19 02:26:08;;;;;;;14.15;8.80;;;;;;;18.80;98.09;96434.44;5019687;28;20041;-66
2023/06/19 02:28:33;;;;;;;13.45;9.77;;;;;;;18.82;97.45;96436.84;5025447;28;20127;-68
2023/06/19 02:30:59;;;;;;;13.32;10.50;;;;;;;18.80;97.36;96439.19;5030704;28;20103;-67
2023/06/19 02:33:24;;;;;;;14.60;9.95;;;;;;;18.82;97.99;96437.59;5019347;28;20560;-69
2023/06/19 02:35:49;;;;;;;11.13;8.77;;;;;;;18.92;97.67;96435.81;5025330;28;20053;-68
2023/06/19 02:38:15;;;;;;;12.10;9.80;;;;;;;18.98;97.30;96444.41;5019502;28;20056;-67
2023/06/19 02:40:40;;;;;;;12.70;9.88;;;;;;;18.89;97.07;96450.56;5024187;28;20037;-68
2023/06/19 02:43:06;;;;;;;12.02;9.13;;;;;;;18.87;97.75;96452.94;5019507;28;20567;-68
2023/06/19 02:45:31;;;;;;;14.55;10.80;;;;;;;18.91;97.53;96459.22;5023394;28;20103;-68
2023/06/19 02:47:57;;;;;;;11.63;9.05;;;;;;;18.93;97.61;96472.69;5023789;28;20045;-67
2023/06/19 02:50:22;;;;;;;11.45;9.45;;;;;;;18.87;97.07;96472.38;5019656;28;20719;-68
2023/06/19 02:52:47;;;;;;;12.70;9.82;;;;;;;18.64;97.95;96479.53;5024333;28;20040;-68
2023/06/19 02:55:13;;;;;;;13.50;9.25;;;;;;;18.77;96.64;96471.38;5018363;28;20140;-68
2023/06/19 02:57:38;;;;;;;11.07;9.07;;;;;;;18.80;95.39;96481.63;5023714;28;20069;-68
2023/06/19 03:00:09;;;;;;;11.38;9.65;;;;;;;18.98;94.28;96486.03;5017420;28;20049;-64
2023/06/19 03:02:34;;;;;;;13.40;9.93;;;;;;;19.19;93.02;96490.38;5022817;28;20048;-68
2023/06/19 03:04:59;;;;;;;13.90;9.98;;;;;;;19.20;93.17;96484.41;5023370;28;20864;-67
2023/06/19 03:07:28;;;;;;;12.57;9.80;;;;;;;19.19;93.35;96493.16;5020452;28;20068;-66
2023/06/19 03:09:54;;;;;;;14.48;10.18;;;;;;;19.10;93.37;96493.72;5024398;28;20095;-67
2023/06/19 03:12:19;;;;;;;14.35;10.70;;;;;;;19.18;92.93;96503.47;5018258;28;20073;-66
2023/06/19 03:14:44;;;;;;;11.85;9.65;;;;;;;19.14;93.10;96510.31;5022258;28;20061;-68
2023/06/19 03:17:10;;;;;;;14.05;9.77;;;;;;;18.71;95.79;96506.38;5018606;28;20049;-67
2023/06/19 03:19:35;;;;;;;14.40;9.90;;;;;;;18.75;96.90;96504.31;5023282;28;20072;-66
2023/06/19 03:22:00;;;;;;;14.45;9.48;;;;;;;18.76;96.74;96500.31;5024231;28;20060;-68
2023/06/19 03:24:26;;;;;;;12.65;10.63;;;;;;;18.75;96.91;96495.97;5018833;28;20077;-67
2023/06/19 03:26:51;;;;;;;15.80;11.23;;;;;;;18.12;100.00;96505.81;5023456;28;20049;-68
2023/06/19 03:29:16;;;;;;;13.13;11.02;;;;;;;17.92;100.00;96502.97;5018125;28;20045;-67
2023/06/19 03:31:42;;;;;;;16.08;10.88;;;;;;;17.77;100.00;96507.09;5023309;28;20045;-65
2023/06/19 03:34:07;;;;;;;14.75;11.30;;;;;;;17.74;100.00;96499.66;5017925;28;20037;-67
2023/06/19 03:36:33;;;;;;;12.27;10.13;;;;;;;17.86;100.00;96509.38;5023080;28;20049;-68
2023/06/19 03:38:58;;;;;;;18.30;11.15;;;;;;;17.97;100.00;96510.03;5022678;28;20041;-68
2023/06/19 03:41:24;;;;;;;15.02;10.98;;;;;;;18.04;100.00;96514.66;4999137;28;20603;-67
2023/06/19 03:43:49;;;;;;;16.38;11.30;;;;;;;17.91;100.00;96509.69;5022466;28;20048;-67
2023/06/19 03:46:14;;;;;;;14.35;11.77;;;;;;;17.34;100.00;96522.38;5018427;28;20057;-67
2023/06/19 03:48:40;;;;;;;14.70;12.02;;;;;;;16.98;100.00;96520.03;5022978;28;20045;-68
2023/06/19 03:51:05;;;;;;;16.13;12.88;;;;;;;16.91;100.00;96511.81;5017957;28;20046;-67
2023/06/19 03:53:31;;;;;;;15.95;12.73;;;;;;;16.98;100.00;96527.56;5021889;28;20049;-67
2023/06/19 03:55:56;;;;;;;15.55;11.50;;;;;;;17.14;100.00;96540.78;5022767;28;20045;-68
2023/06/19 03:58:21;;;;;;;15.15;11.85;;;;;;;17.29;100.00;96538.66;5018349;28;20755;-67
2023/06/19 04:00:47;;;;;;;16.92;11.75;;;;;;;17.52;100.00;96549.81;5023101;28;20425;-67
2023/06/19 04:03:12;;;;;;;14.60;12.70;;;;;;;17.64;100.00;96553.97;5015647;28;20037;-67
2023/06/19 04:05:38;;;;;;;19.83;12.38;;;;;;;17.65;100.00;96554.78;5024018;28;20038;-68
2023/06/19 04:08:04;;;;;;;14.80;12.35;;;;;;;17.66;100.00;96545.25;5018740;28;20053;-64
2023/06/19 04:10:30;;;;;;;14.30;12.20;;;;;;;17.66;100.00;96554.34;5023335;28;20487;-68
2023/06/19 04:12:56;;;;;;;15.88;12.18;;;;;;;17.80;100.00;96566.44;5023168;28;20034;-67
2023/06/19 04:15:22;;;;;;;18.95;12.10;;;;;;;18.12;100.00;96575.09;5018239;28;20790;-67
2023/06/19 04:17:47;;;;;;;16.50;11.68;;;;;;;18.26;100.00;96573.31;5022755;28;20403;-67
2023/06/19 04:20:14;;;;;;;15.35;10.02;;;;;;;18.40;100.00;96578.63;5015988;28;20045;-67
2023/06/19 04:22:41;;;;;;;12.02;9.65;;;;;;;18.49;100.00;96569.75;5021962;28;20114;-67
2023/06/19 04:25:07;;;;;;;11.13;8.88;;;;;;;18.73;100.00;96567.75;5017260;28;20049;-67
2023/06/19 04:27:33;;;;;;;12.40;9.15;;;;;;;18.94;100.00;96563.81;5022026;28;20040;-71
2023/06/19 04:29:58;;;;;;;14.05;8.73;;;;;;;19.04;100.00;96560.06;5023232;28;20042;-69
2023/06/19 04:32:24;;;;;;;13.35;8.38;;;;;;;19.10;100.00;96561.16;5014966;28;20048;-70
2023/06/19 04:34:50;;;;;;;14.07;8.77;;;;;;;19.08;100.00;96562.75;5020606;28;20170;-69
2023/06/19 04:37:19;;;;;;;11.77;9.27;;;;;;;18.97;100.00;96571.28;5013952;28;20566;-69
2023/06/19 04:39:45;;;;;;;12.02;9.05;;;;;;;18.89;100.00;96573.44;5021678;28;20132;-70
2023/06/19 04:42:10;;;;;;;14.25;9.35;;;;;;;18.83;100.00;96574.34;5014974;28;20601;-70
2023/06/19 04:44:36;;;;;;;12.10;9.13;;;;;;;18.72;100.00;96585.59;5023197;28;20069;-70
2023/06/19 04:47:01;;;;;;;13.48;9.95;;;;;;;18.70;100.00;96593.56;5022828;28;20095;-70
2023/06/19 04:49:30;;;;;;;16.20;9.93;;;;;;;18.65;100.00;96597.59;5008523;28;20040;-71
2023/06/19 04:51:57;;;;;;;12.40;8.85;;;;;;;18.64;100.00;96607.13;5004848;28;20116;-70
2023/06/19 04:54:23;;;;;;;13.68;9.13;;;;;;;18.66;100.00;96607.50;5017272;28;20061;-70
2023/06/19 04:56:48;;;;;;;12.48;9.18;;;;;;;18.79;100.00;96606.88;5022176;28;20049;-70
2023/06/19 04:59:17;;;;;;;14.52;9.00;;;;;;;18.91;100.00;96592.44;5017685;28;20041;-70
2023/06/19 05:01:43;;;;;;;9.18;8.18;;;;;;;19.14;100.00;96597.16;5023138;28;20129;-70
2023/06/19 05:04:11;;;;;;;10.90;7.60;;;;;;;19.27;100.00;96597.31;5019109;28;20073;-70
2023/06/19 05:06:36;;;;;;;13.98;7.70;;;;;;;19.48;100.00;96601.63;5021831;28;20037;-70
2023/06/19 05:09:02;;;;;;;15.80;8.00;;;;;;;19.49;100.00;96615.09;5020155;28;20050;-70
2023/06/19 05:11:27;;;;;;;11.90;8.13;;;;;;;19.48;100.00;96613.53;5018797;28;20045;-69
2023/06/19 05:13:53;;;;;;;12.13;8.02;;;;;;;19.46;100.00;96620.72;5021229;28;20033;-69
2023/06/19 05:16:19;;;;;;;10.10;8.13;;;;;;;19.54;100.00;96624.94;5017594;28;20099;-69
2023/06/19 05:18:45;;;;;;;11.00;8.27;;;;;;;19.56;100.00;96624.50;5021683;28;20493;-69
2023/06/19 05:21:11;;;;;;;11.10;8.40;;;;;;;19.58;100.00;96613.75;5017249;28;20128;-70
2023/06/19 05:23:38;;;;;;;12.80;8.38;;;;;;;19.75;100.00;96618.16;5021961;28;20042;-69
2023/06/19 05:26:03;;;;;;;10.70;8.18;;;;;;;19.91;100.00;96614.66;5018719;28;20700;-68
2023/06/19 05:28:29;;;;;;;11.85;8.10;;;;;;;19.93;100.00;96617.00;5023712;28;20045;-70
2023/06/19 05:30:54;;;;;;;11.00;8.60;;;;;;;20.01;100.00;96621.19;5023970;28;20037;-71
2023/06/19 05:33:23;;;;;;;11.63;8.57;;;;;;;20.08;100.00;96620.22;5021074;28;20068;-71
2023/06/19 05:35:52;;;;;;;11.05;8.50;;;;;;;20.31;100.00;96622.09;5026183;28;20558;-71
2023/06/19 05:38:18;;;;;;;12.38;8.48;;;;;;;20.38;100.00;96624.72;5023874;28;20045;-69
2023/06/19 05:40:44;;;;;;;13.77;8.63;;;;;;;20.38;100.00;96622.72;5029315;28;20069;-69
2023/06/19 05:43:09;;;;;;;10.43;7.85;;;;;;;20.27;100.00;96636.09;5019915;28;20075;-70
2023/06/19 05:45:34;;;;;;;11.00;9.13;;;;;;;20.19;100.00;96632.69;5025491;28;20042;-70
2023/06/19 05:48:00;;;;;;;10.20;7.85;;;;;;;19.98;100.00;96647.84;5026019;28;20045;-71
2023/06/19 05:50:25;;;;;;;12.80;9.77;;;;;;;19.89;100.00;96661.53;5021585;28;20046;-71
2023/06/19 05:52:51;;;;;;;11.02;8.05;;;;;;;19.99;100.00;96651.44;5023458;28;20506;-70
2023/06/19 05:55:16;;;;;;;10.20;8.27;;;;;;;19.97;100.00;96651.84;5019869;28;20056;-70
2023/06/19 05:57:42;;;;;;;12.90;8.82;;;;;;;19.93;100.00;96656.69;5024873;28;20137;-70
2023/06/19 06:00:13;;;;;;;12.15;9.50;;;;;;;19.98;100.00;96655.41;5020079;28;20042;-68
2023/06/19 06:02:39;;;;;;;12.88;8.23;;;;;;;19.93;100.00;96667.03;5023774;28;20049;-69
2023/06/19 06:05:05;;;;;;;11.80;8.73;;;;;;;20.00;100.00;96667.66;5021033;28;20047;-69
2023/06/19 06:07:30;;;;;;;10.65;8.57;;;;;;;20.25;100.00;96664.31;5026108;28;20447;-70
2023/06/19 06:09:56;;;;;;;10.73;8.45;;;;;;;20.57;100.00;96662.81;5023099;28;20176;-70
2023/06/19 06:12:21;;;;;;;10.20;8.48;;;;;;;20.50;100.00;96668.53;5017903;28;20111;-69
2023/06/19 06:14:46;;;;;;;14.30;8.63;;;;;;;20.76;100.00;96665.97;5023850;28;20041;-69
2023/06/19 06:17:12;;;;;;;11.77;8.60;;;;;;;20.81;100.00;96663.47;5019023;28;20590;-69
2023/06/19 06:19:38;;;;;;;11.18;8.20;;;;;;;20.78;100.00;96661.53;5024388;28;20047;-69
2023/06/19 06:22:04;;;;;;;12.77;9.10;;;;;;;20.79;100.00;96659.53;5020428;28;20052;-70
2023/06/19 06:24:30;;;;;;;10.93;8.40;;;;;;;20.76;100.00;96661.19;5024251;28;20045;-70
2023/06/19 06:26:55;;;;;;;10.10;8.45;;;;;;;20.83;100.00;96670.56;5024486;28;20056;-70
2023/06/19 06:29:20;;;;;;;11.68;8.20;;;;;;;20.70;100.00;96649.00;5019171;28;20041;-69
2023/06/19 06:31:47;;;;;;;12.73;9.32;;;;;;;20.45;100.00;96655.13;5022983;28;20125;-70
2023/06/19 06:34:13;;;;;;;11.18;8.95;;;;;;;20.16;100.00;96650.22;5019496;28;20132;-69
2023/06/19 06:36:39;;;;;;;11.25;9.80;;;;;;;19.56;100.00;96646.72;5024110;28;20124;-69
2023/06/19 06:39:05;;;;;;;14.35;9.55;;;;;;;19.53;100.00;96647.56;5017953;28;20037;-70
2023/06/19 06:41:31;;;;;;;12.10;9.00;;;;;;;19.43;100.00;96644.59;5025044;28;20129;-69
2023/06/19 06:43:57;;;;;;;14.07;9.02;;;;;;;19.51;100.00;96641.66;5025833;28;20136;-69
2023/06/19 06:46:22;;;;;;;10.35;8.13;;;;;;;19.44;100.00;96637.03;5019515;28;20045;-69
2023/06/19 06:48:49;;;;;;;8.27;6.57;;;;;;;19.06;100.00;96632.56;5023675;28;20494;-70
2023/06/19 06:51:14;;;;;;;9.93;7.72;;;;;;;19.13;100.00;96628.91;5019610;28;20045;-70
2023/06/19 06:53:39;;;;;;;11.55;7.40;;;;;;;19.43;100.00;96633.47;5023617;28;20052;-70
2023/06/19 06:56:05;;;;;;;9.75;8.40;;;;;;;19.32;100.00;96626.56;5020152;28;20077;-70
2023/06/19 06:58:30;;;;;;;8.93;7.70;;;;;;;19.03;100.00;96611.25;5024223;28;20136;-70
2023/06/19 07:00:56;;;;;;;9.25;7.05;;;;;;;19.14;100.00;96624.91;5023753;28;20033;-70
2023/06/19 07:03:21;;;;;;;10.00;7.20;;;;;;;19.38;100.00;96622.09;5018634;28;20540;-71
2023/06/19 07:05:50;;;;;;;9.18;7.18;;;;;;;19.55;100.00;96617.38;5024071;28;20049;-70
2023/06/19 07:08:15;;;;;;;9.15;6.43;;;;;;;20.03;100.00;96615.97;5018261;28;20037;-70
2023/06/19 07:10:41;;;;;;;7.65;5.95;;;;;;;20.24;100.00;96609.94;5023883;28;20033;-69
2023/06/19 07:13:06;;;;;;;8.45;6.90;;;;;;;20.40;100.00;96600.03;5016816;28;20059;-70
2023/06/19 07:15:31;;;;;;;8.98;6.30;;;;;;;20.57;100.00;96603.59;5024223;28;20049;-69
2023/06/19 07:17:57;;;;;;;7.68;6.80;;;;;;;20.84;100.00;96600.56;5023000;28;20054;-71
2023/06/19 07:20:22;;;;;;;7.00;5.22;;;;;;;20.89;100.00;96605.59;5019183;28;20045;-70
2023/06/19 07:22:51;;;;;;;7.53;6.15;;;;;;;20.90;100.00;96598.78;5021276;28;20039;-70
2023/06/19 07:25:17;;;;;;;8.02;5.50;;;;;;;21.19;100.00;96604.41;5018333;28;20053;-70
2023/06/19 07:27:42;;;;;;;8.93;6.00;;;;;;;20.96;100.00;96601.84;5023380;28;20048;-70
2023/06/19 07:30:08;;;;;;;9.18;5.85;;;;;;;21.06;100.00;96602.78;5018440;28;20072;-70
2023/06/19 07:32:34;;;;;;;8.95;5.90;;;;;;;21.19;100.00;96598.03;5022865;28;20063;-70
2023/06/19 07:34:59;;;;;;;7.90;6.00;;;;;;;21.54;99.75;96587.94;5022626;28;20486;-69
2023/06/19 07:37:24;;;;;;;8.05;5.45;;;;;;;21.68;96.43;96595.09;5018825;28;20046;-70
2023/06/19 07:39:51;;;;;;;8.10;6.22;;;;;;;22.00;96.45;96592.56;5022837;28;20494;-70
2023/06/19 07:42:19;;;;;;;7.85;6.10;;;;;;;22.20;97.55;96592.34;5017125;28;20124;-70
2023/06/19 07:44:45;;;;;;;9.57;5.75;;;;;;;22.43;94.48;96585.66;5021999;28;20371;-70
2023/06/19 07:47:11;;;;;;;10.13;6.47;;;;;;;22.71;92.24;96587.50;4998732;28;20092;-70
2023/06/19 07:49:37;;;;;;;8.55;5.82;;;;;;;22.45;96.17;96588.78;5012064;28;20144;-71
2023/06/19 07:52:04;;;;;;;7.68;5.68;;;;;;;22.32;96.25;96595.16;5020335;28;20120;-71
2023/06/19 07:54:29;;;;;;;8.90;5.80;;;;;;;22.80;93.65;96597.97;5021192;28;20424;-70
2023/06/19 07:56:54;;;;;;;8.27;6.03;;;;;;;22.81;91.36;96590.38;5022624;28;20045;-71
2023/06/19 07:59:20;;;;;;;14.85;6.47;;;;;;;22.99;91.75;96598.91;5018598;28;20128;-70
2023/06/19 08:01:45;;;;;;;7.63;5.25;;;;;;;23.34;89.69;96593.34;5021866;28;20038;-70
2023/06/19 08:04:11;;;;;;;6.82;5.35;;;;;;;23.65;88.03;96592.63;5018175;28;20055;-69
2023/06/19 08:06:36;;;;;;;9.75;6.00;;;;;;;23.89;86.27;96598.53;5023650;28;20041;-69
2023/06/19 08:09:02;;;;;;;13.02;5.90;;;;;;;24.09;85.78;96595.34;5022142;28;20049;-70
2023/06/19 08:11:28;;;;;;;9.25;5.30;;;;;;;24.32;83.18;96593.28;5020888;28;20130;-69
2023/06/19 08:13:53;;;;;;;8.00;6.20;;;;;;;24.52;81.38;96596.44;5022954;28;20490;-70
2023/06/19 08:16:19;;;;;;;8.30;5.15;;;;;;;24.74;80.68;96582.38;5018245;28;20045;-69
2023/06/19 08:18:45;;;;;;;8.75;5.85;;;;;;;24.69;75.80;96577.41;5022214;28;20073;-69
2023/06/19 08:21:10;;;;;;;6.03;5.15;;;;;;;24.52;76.37;96581.69;5017656;28;20045;-70
2023/06/19 08:23:37;;;;;;;6.97;4.85;;;;;;;25.03;74.88;96577.56;5022517;28;20041;-68
2023/06/19 08:26:03;;;;;;;7.03;5.05;;;;;;;25.47;71.57;96569.63;5018878;28;20056;-69
2023/06/19 08:28:29;;;;;;;6.30;4.93;;;;;;;26.03;67.55;96573.09;5001953;28;20099;-69
2023/06/19 08:30:54;;;;;;;7.93;5.97;;;;;;;26.26;63.08;96574.41;5023146;28;20104;-68
2023/06/19 08:33:19;;;;;;;7.97;6.43;;;;;;;25.49;62.85;96569.94;5022406;28;20068;-68
2023/06/19 08:35:46;;;;;;;8.68;5.65;;;;;;;25.70;63.96;96568.19;5025062;28;20057;-70
2023/06/19 08:38:11;;;;;;;7.38;5.75;;;;;;;26.40;62.42;96566.53;5017999;28;20580;-70
2023/06/19 08:40:37;;;;;;;7.20;5.28;;;;;;;26.81;59.85;96569.75;5023025;28;20041;-69
2023/06/19 08:43:03;;;;;;;8.90;5.45;;;;;;;27.23;57.25;96572.41;5020614;28;20037;-70
2023/06/19 08:45:28;;;;;;;7.05;5.75;;;;;;;26.13;59.87;96568.25;5019399;28;20060;-68
2023/06/19 08:48:03;;;;;;;7.50;5.55;;;;;;;27.66;56.80;96586.28;5021641;28;20041;-68
2023/06/19 08:50:32;;;;;;;7.07;5.20;;;;;;;28.82;53.38;96578.63;5020520;28;20043;-68
2023/06/19 08:52:58;;;;;;;6.93;5.22;;;;;;;29.74;50.84;96576.34;5021287;28;20406;-69
2023/06/19 08:55:24;;;;;;;6.70;5.35;;;;;;;29.54;49.43;96574.38;5032645;28;20037;-69
2023/06/19 08:57:51;;;;;;;7.70;5.18;;;;;;;28.93;51.34;96575.97;5022147;28;20068;-69
2023/06/19 09:00:28;;;;;;;10.65;5.63;;;;;;;29.03;49.89;96573.78;5018334;28;20041;-69
2023/06/19 09:03:01;;;;;;;7.57;5.60;;;;;;;29.64;49.15;96578.59;5021350;28;20049;-69
2023/06/19 09:05:27;;;;;;;12.07;5.88;;;;;;;29.29;49.26;96570.25;5017199;28;20667;-70
2023/06/19 09:07:57;;;;;;;6.78;5.28;;;;;;;29.26;49.66;96572.03;5022202;28;20073;-70
2023/06/19 09:10:24;;;;;;;7.65;4.80;;;;;;;29.79;47.91;96572.84;5016538;28;20926;-70
2023/06/19 09:13:16;;;;;;;7.07;4.93;;;;;;;29.61;48.70;96571.09;5021923;28;20076;-68
2023/06/19 09:15:41;;;;;;;8.18;5.18;;;;;;;29.88;48.12;96564.19;5019862;28;20412;-70
2023/06/19 09:18:09;;;;;;;8.75;5.10;;;;;;;30.34;45.84;96573.03;5015979;28;20100;-70
2023/06/19 09:20:38;;;;;;;8.27;4.95;;;;;;;30.56;45.90;96566.75;5022886;28;20037;-69
2023/06/19 09:23:04;;;;;;;8.40;4.72;;;;;;;30.62;45.13;96562.69;5017346;28;20506;-70
2023/06/19 09:25:30;;;;;;;5.00;4.35;;;;;;;30.74;44.42;96565.56;5020635;28;20041;-68
2023/06/19 09:27:56;;;;;;;5.22;4.30;;;;;;;30.49;43.55;96570.84;5022556;28;20077;-69
2023/06/19 09:30:22;;;;;;;7.47;4.95;;;;;;;30.46;43.44;96569.78;5018002;28;20821;-69
2023/06/19 09:32:47;;;;;;;6.13;4.45;;;;;;;30.07;43.87;96564.63;5022091;28;20259;-70
2023/06/19 09:35:13;;;;;;;6.40;4.63;;;;;;;30.01;45.33;96554.56;5018736;28;20037;-70
2023/06/19 09:37:40;;;;;;;4.97;3.60;;;;;;;30.03;42.75;96566.13;5020916;28;20449;-70
2023/06/19 09:40:10;;;;;;;8.93;4.05;;;;;;;30.13;44.41;96556.19;5018191;28;20045;-71
2023/06/19 09:42:38;;;;;;;7.78;4.15;;;;;;;29.99;43.36;96551.47;5022348;28;20100;-70
2023/06/19 09:45:05;;;;;;;5.88;4.40;;;;;;;29.71;43.97;96555.56;5021162;28;20041;-71
2023/06/19 09:47:35;;;;;;;7.47;4.20;;;;;;;29.94;45.10;96541.66;5023787;28;20072;-69
2023/06/19 09:50:01;;;;;;;6.78;4.78;;;;;;;29.01;46.41;96550.94;5023950;28;20583;-69
2023/06/19 09:52:27;;;;;;;4.60;3.83;;;;;;;29.13;44.95;96558.25;5019254;28;20053;-70
2023/06/19 09:54:54;;;;;;;5.45;4.05;;;;;;;29.14;44.68;96557.03;5022789;28;20041;-69
2023/06/19 09:57:20;;;;;;;7.05;4.40;;;;;;;28.00;48.08;96556.69;5016742;28;20049;-69
2023/06/19 09:59:52;;;;;;;5.90;4.97;;;;;;;26.99;51.66;96552.00;5021930;28;20046;-69
2023/06/19 10:02:20;;;;;;;6.93;4.43;;;;;;;26.68;52.45;96547.53;5017747;28;20465;-71
2023/06/19 10:04:50;;;;;;;6.22;4.80;;;;;;;26.67;53.33;96548.81;5022815;28;20048;-70
2023/06/19 10:07:21;;;;;;;5.53;4.38;;;;;;;27.70;52.57;96550.28;5018800;28;20045;-69
2023/06/19 10:10:06;;;;;;;5.43;3.97;;;;;;;28.95;49.08;96550.88;5021784;28;20038;-69
2023/06/19 10:12:47;;;;;;;6.00;4.20;;;;;;;29.66;45.32;96547.06;5021350;28;20065;-69
2023/06/19 10:15:32;;;;;;;5.00;3.78;;;;;;;30.32;43.43;96550.91;5017964;28;20057;-67
2023/06/19 10:18:02;;;;;;;5.25;3.75;;;;;;;30.09;43.53;96550.78;5022472;28;20063;-71
2023/06/19 10:20:31;;;;;;;4.93;3.70;;;;;;;29.97;43.72;96548.38;5021247;28;20049;-69
2023/06/19 10:23:18;;;;;;;4.75;3.67;;;;;;;30.25;42.57;96551.38;5023672;28;20061;-70
2023/06/19 10:25:48;;;;;;;4.78;4.28;;;;;;;29.92;42.69;96547.78;5025357;28;20069;-70
2023/06/19 10:28:28;;;;;;;6.53;4.25;;;;;;;28.84;45.42;96538.69;5022989;28;20605;-68
2023/06/19 10:30:58;;;;;;;6.60;3.75;;;;;;;30.03;44.65;96540.69;5025755;28;20667;-68
2023/06/19 10:33:25;;;;;;;5.75;4.50;;;;;;;28.82;45.41;96542.00;5021183;28;20505;-68
2023/06/19 10:35:51;;;;;;;4.82;4.15;;;;;;;28.68;46.18;96532.34;5027211;28;20049;-69
2023/06/19 10:38:16;;;;;;;6.55;4.43;;;;;;;27.85;48.12;96528.53;5020570;28;20041;-68
2023/06/19 10:40:43;;;;;;;7.20;4.43;;;;;;;29.14;45.84;96526.00;5024481;28;20037;-69
2023/06/19 10:43:09;;;;;;;5.82;4.55;;;;;;;29.09;45.63;96514.63;5019918;28;20064;-70
2023/06/19 10:45:35;;;;;;;5.78;4.45;;;;;;;29.13;45.40;96509.56;5024481;28;20073;-68
2023/06/19 10:48:03;;;;;;;6.90;4.05;;;;;;;29.02;46.22;96513.03;5024199;28;20049;-68
2023/06/19 10:50:29;;;;;;;5.10;4.15;;;;;;;28.85;47.61;96503.63;5023230;28;20124;-70
2023/06/19 10:52:54;;;;;;;9.93;4.82;;;;;;;30.13;44.53;96502.53;5024595;28;20146;-70
2023/06/19 10:55:21;;;;;;;5.95;4.20;;;;;;;31.01;42.22;96507.66;5019790;28;20103;-69
2023/06/19 10:57:47;;;;;;;5.05;4.30;;;;;;;31.25;41.61;96496.63;5025212;28;20403;-69
2023/06/19 11:00:28;;;;;;;4.22;3.78;;;;;;;31.51;40.97;96501.34;5019332;28;20061;-69
2023/06/19 11:02:53;;;;;;;5.03;4.05;;;;;;;31.85;39.92;96509.06;5024962;28;20034;-69
2023/06/19 11:05:23;;;;;;;4.82;3.80;;;;;;;32.29;39.85;96505.47;5019713;28;20068;-69
2023/06/19 11:07:55;;;;;;;4.97;4.10;;;;;;;32.53;38.50;96489.94;5024818;28;20073;-70
2023/06/19 11:10:24;;;;;;;7.20;4.18;;;;;;;31.42;40.12;96496.69;5021187;28;20076;-69
2023/06/19 11:12:59;;;;;;;5.78;4.07;;;;;;;32.05;37.84;96493.91;5024589;28;20124;-70
2023/06/19 11:15:43;;;;;;;6.88;3.90;;;;;;;32.11;36.82;96486.94;5018905;28;20045;-69
2023/06/19 11:18:09;;;;;;;11.90;3.95;;;;;;;31.23;37.34;96476.56;5019747;28;20486;-69
2023/06/19 11:21:04;;;;;;;8.75;4.25;;;;;;;30.95;37.02;96481.41;5025595;28;20043;-69
2023/06/19 11:23:30;;;;;;;5.35;4.00;;;;;;;30.90;37.81;96482.91;5010181;28;20045;-69